sensor_id;sensor_type;location;lat;lon;timestamp;P1;durP1;ratioP1;P2;durP2;ratioP2
17253;SDS011;32542;52.832;13.816;2023-08-07T00:02:21;4.82;;;1.20;;
17253;SDS011;32542;52.832;13.816;2023-08-07T00:05:24;2.60;;;1.20;;
17253;SDS011;32542;52.832;13.816;2023-08-07T00:08:29;3.33;;;1.20;;
17253;SDS011;32542;52.832;13.816;2023-08-07T00:11:32;2.17;;;1.40;;
17253;SDS011;32542;52.832;13.816;2023-08-07T00:14:35;2.45;;;1.13;;
17253;SDS011;32542;52.832;13.816;2023-08-07T00:17:38;2.15;;;1.20;;
17253;SDS011;32542;52.832;13.816;2023-08-07T00:20:42;3.55;;;1.27;;
17253;SDS011;32542;52.832;13.816;2023-08-07T00:23:46;2.67;;;1.20;;
17253;SDS011;32542;52.832;13.816;2023-08-07T00:26:49;1.40;;;1.15;;
17253;SDS011;32542;52.832;13.816;2023-08-07T00:29:52;1.48;;;1.10;;
17253;SDS011;32542;52.832;13.816;2023-08-07T00:32:55;1.65;;;1.10;;
17253;SDS011;32542;52.832;13.816;2023-08-07T00:35:58;2.05;;;1.17;;
17253;SDS011;32542;52.832;13.816;2023-08-07T00:39:02;2.00;;;1.10;;
17253;SDS011;32542;52.832;13.816;2023-08-07T00:42:06;2.80;;;1.30;;
17253;SDS011;32542;52.832;13.816;2023-08-07T00:45:09;1.27;;;1.00;;
17253;SDS011;32542;52.832;13.816;2023-08-07T00:48:13;3.05;;;1.30;;
17253;SDS011;32542;52.832;13.816;2023-08-07T00:51:17;1.70;;;1.40;;
17253;SDS011;32542;52.832;13.816;2023-08-07T00:54:21;1.38;;;1.25;;
17253;SDS011;32542;52.832;13.816;2023-08-07T00:57:24;1.40;;;1.20;;
17253;SDS011;32542;52.832;13.816;2023-08-07T01:00:28;1.55;;;1.05;;
17253;SDS011;32542;52.832;13.816;2023-08-07T01:03:31;1.42;;;1.08;;
17253;SDS011;32542;52.832;13.816;2023-08-07T01:06:34;1.63;;;0.85;;
17253;SDS011;32542;52.832;13.816;2023-08-07T01:09:39;2.28;;;1.20;;
17253;SDS011;32542;52.832;13.816;2023-08-07T01:12:45;2.85;;;1.20;;
17253;SDS011;32542;52.832;13.816;2023-08-07T01:15:53;1.80;;;1.20;;
17253;SDS011;32542;52.832;13.816;2023-08-07T01:19:00;2.28;;;1.20;;
17253;SDS011;32542;52.832;13.816;2023-08-07T01:22:06;2.95;;;1.30;;
17253;SDS011;32542;52.832;13.816;2023-08-07T01:25:11;1.75;;;1.13;;
17253;SDS011;32542;52.832;13.816;2023-08-07T01:28:16;1.80;;;1.20;;
17253;SDS011;32542;52.832;13.816;2023-08-07T01:31:21;0.98;;;0.90;;
17253;SDS011;32542;52.832;13.816;2023-08-07T01:34:27;2.13;;;1.10;;
17253;SDS011;32542;52.832;13.816;2023-08-07T01:37:34;2.20;;;1.30;;
17253;SDS011;32542;52.832;13.816;2023-08-07T01:40:41;1.23;;;1.08;;
17253;SDS011;32542;52.832;13.816;2023-08-07T01:43:45;1.95;;;1.23;;
17253;SDS011;32542;52.832;13.816;2023-08-07T01:46:48;2.88;;;1.42;;
17253;SDS011;32542;52.832;13.816;2023-08-07T01:49:51;3.28;;;1.10;;
17253;SDS011;32542;52.832;13.816;2023-08-07T01:52:56;1.30;;;1.17;;
17253;SDS011;32542;52.832;13.816;2023-08-07T01:55:59;3.95;;;1.10;;
17253;SDS011;32542;52.832;13.816;2023-08-07T01:59:02;2.72;;;1.08;;
17253;SDS011;32542;52.832;13.816;2023-08-07T02:02:05;2.08;;;1.30;;
17253;SDS011;32542;52.832;13.816;2023-08-07T02:05:08;2.42;;;0.98;;
17253;SDS011;32542;52.832;13.816;2023-08-07T02:08:12;2.42;;;1.20;;
17253;SDS011;32542;52.832;13.816;2023-08-07T02:11:15;3.42;;;1.00;;
17253;SDS011;32542;52.832;13.816;2023-08-07T02:14:19;1.02;;;0.90;;
17253;SDS011;32542;52.832;13.816;2023-08-07T02:17:22;1.98;;;1.10;;
17253;SDS011;32542;52.832;13.816;2023-08-07T02:20:25;2.45;;;1.10;;
17253;SDS011;32542;52.832;13.816;2023-08-07T02:23:29;2.25;;;1.13;;
17253;SDS011;32542;52.832;13.816;2023-08-07T02:26:34;2.33;;;1.40;;
17253;SDS011;32542;52.832;13.816;2023-08-07T02:29:37;3.85;;;1.30;;
17253;SDS011;32542;52.832;13.816;2023-08-07T02:32:40;2.00;;;1.08;;
17253;SDS011;32542;52.832;13.816;2023-08-07T02:35:46;1.20;;;1.00;;
17253;SDS011;32542;52.832;13.816;2023-08-07T02:38:50;3.70;;;1.10;;
17253;SDS011;32542;52.832;13.816;2023-08-07T02:41:55;2.72;;;1.17;;
17253;SDS011;32542;52.832;13.816;2023-08-07T02:44:57;1.75;;;1.05;;
17253;SDS011;32542;52.832;13.816;2023-08-07T02:48:00;1.48;;;1.05;;
17253;SDS011;32542;52.832;13.816;2023-08-07T02:51:04;1.90;;;1.30;;
17253;SDS011;32542;52.832;13.816;2023-08-07T02:54:08;2.20;;;1.33;;
17253;SDS011;32542;52.832;13.816;2023-08-07T02:57:11;1.38;;;1.02;;
17253;SDS011;32542;52.832;13.816;2023-08-07T03:00:14;2.28;;;1.27;;
17253;SDS011;32542;52.832;13.816;2023-08-07T03:03:17;1.98;;;1.00;;
17253;SDS011;32542;52.832;13.816;2023-08-07T03:06:20;1.48;;;1.10;;
17253;SDS011;32542;52.832;13.816;2023-08-07T03:09:24;1.30;;;1.10;;
17253;SDS011;32542;52.832;13.816;2023-08-07T03:12:27;1.60;;;1.02;;
17253;SDS011;32542;52.832;13.816;2023-08-07T03:15:30;1.90;;;1.00;;
17253;SDS011;32542;52.832;13.816;2023-08-07T03:18:33;1.60;;;1.08;;
17253;SDS011;32542;52.832;13.816;2023-08-07T03:21:36;1.63;;;1.13;;
17253;SDS011;32542;52.832;13.816;2023-08-07T03:24:45;2.17;;;1.13;;
17253;SDS011;32542;52.832;13.816;2023-08-07T03:27:49;1.48;;;1.17;;
17253;SDS011;32542;52.832;13.816;2023-08-07T03:30:52;7.60;;;2.00;;
17253;SDS011;32542;52.832;13.816;2023-08-07T03:33:55;1.35;;;1.00;;
17253;SDS011;32542;52.832;13.816;2023-08-07T03:37:01;1.67;;;1.20;;
17253;SDS011;32542;52.832;13.816;2023-08-07T03:40:06;2.35;;;1.40;;
17253;SDS011;32542;52.832;13.816;2023-08-07T03:43:10;1.23;;;0.90;;
17253;SDS011;32542;52.832;13.816;2023-08-07T03:46:14;1.10;;;1.00;;
17253;SDS011;32542;52.832;13.816;2023-08-07T03:49:17;2.22;;;1.00;;
17253;SDS011;32542;52.832;13.816;2023-08-07T03:52:20;2.05;;;1.27;;
17253;SDS011;32542;52.832;13.816;2023-08-07T03:55:25;1.25;;;1.10;;
17253;SDS011;32542;52.832;13.816;2023-08-07T03:58:28;2.03;;;1.25;;
17253;SDS011;32542;52.832;13.816;2023-08-07T04:01:31;1.30;;;1.13;;
17253;SDS011;32542;52.832;13.816;2023-08-07T04:04:34;2.33;;;1.27;;
17253;SDS011;32542;52.832;13.816;2023-08-07T04:07:37;1.20;;;1.10;;
17253;SDS011;32542;52.832;13.816;2023-08-07T04:10:41;1.60;;;1.15;;
17253;SDS011;32542;52.832;13.816;2023-08-07T04:13:44;3.25;;;0.98;;
17253;SDS011;32542;52.832;13.816;2023-08-07T04:16:47;1.10;;;0.95;;
17253;SDS011;32542;52.832;13.816;2023-08-07T04:19:49;1.70;;;1.20;;
17253;SDS011;32542;52.832;13.816;2023-08-07T04:22:52;1.98;;;1.10;;
17253;SDS011;32542;52.832;13.816;2023-08-07T04:25:58;1.42;;;1.10;;
17253;SDS011;32542;52.832;13.816;2023-08-07T04:29:02;1.23;;;0.90;;
17253;SDS011;32542;52.832;13.816;2023-08-07T04:32:05;1.17;;;1.08;;
17253;SDS011;32542;52.832;13.816;2023-08-07T04:35:09;2.90;;;1.00;;
17253;SDS011;32542;52.832;13.816;2023-08-07T04:38:12;2.47;;;1.20;;
17253;SDS011;32542;52.832;13.816;2023-08-07T04:41:16;1.65;;;0.95;;
17253;SDS011;32542;52.832;13.816;2023-08-07T04:44:19;1.52;;;1.00;;
17253;SDS011;32542;52.832;13.816;2023-08-07T04:47:22;1.58;;;1.05;;
17253;SDS011;32542;52.832;13.816;2023-08-07T04:50:25;1.85;;;1.25;;
17253;SDS011;32542;52.832;13.816;2023-08-07T04:53:28;1.77;;;1.10;;
17253;SDS011;32542;52.832;13.816;2023-08-07T04:56:32;1.23;;;1.13;;
17253;SDS011;32542;52.832;13.816;2023-08-07T04:59:35;1.10;;;1.00;;
17253;SDS011;32542;52.832;13.816;2023-08-07T05:02:38;1.88;;;1.10;;
17253;SDS011;32542;52.832;13.816;2023-08-07T05:05:41;2.03;;;1.10;;
17253;SDS011;32542;52.832;13.816;2023-08-07T05:08:44;1.33;;;0.98;;
17253;SDS011;32542;52.832;13.816;2023-08-07T05:11:48;2.70;;;1.10;;
17253;SDS011;32542;52.832;13.816;2023-08-07T05:14:51;3.30;;;1.23;;
17253;SDS011;32542;52.832;13.816;2023-08-07T05:17:54;1.58;;;1.08;;
17253;SDS011;32542;52.832;13.816;2023-08-07T05:20:57;1.60;;;1.20;;
17253;SDS011;32542;52.832;13.816;2023-08-07T05:24:00;1.45;;;0.95;;
17253;SDS011;32542;52.832;13.816;2023-08-07T05:27:05;1.75;;;1.20;;
17253;SDS011;32542;52.832;13.816;2023-08-07T05:30:10;2.05;;;1.25;;
17253;SDS011;32542;52.832;13.816;2023-08-07T05:33:14;1.08;;;0.98;;
17253;SDS011;32542;52.832;13.816;2023-08-07T05:36:17;1.20;;;1.02;;
17253;SDS011;32542;52.832;13.816;2023-08-07T05:39:20;1.85;;;1.20;;
17253;SDS011;32542;52.832;13.816;2023-08-07T05:42:24;1.20;;;1.05;;
17253;SDS011;32542;52.832;13.816;2023-08-07T05:45:27;0.98;;;0.98;;
17253;SDS011;32542;52.832;13.816;2023-08-07T05:48:30;1.52;;;1.20;;
17253;SDS011;32542;52.832;13.816;2023-08-07T05:51:32;1.60;;;1.00;;
17253;SDS011;32542;52.832;13.816;2023-08-07T05:54:35;2.90;;;1.35;;
17253;SDS011;32542;52.832;13.816;2023-08-07T05:57:40;1.83;;;1.13;;
17253;SDS011;32542;52.832;13.816;2023-08-07T06:07:44;4.78;;;1.77;;
17253;SDS011;32542;52.832;13.816;2023-08-07T06:10:47;6.97;;;1.58;;
17253;SDS011;32542;52.832;13.816;2023-08-07T06:13:51;7.97;;;2.20;;
17253;SDS011;32542;52.832;13.816;2023-08-07T06:16:54;3.53;;;1.55;;
17253;SDS011;32542;52.832;13.816;2023-08-07T06:19:59;3.72;;;1.70;;
17253;SDS011;32542;52.832;13.816;2023-08-07T06:23:02;3.80;;;1.30;;
17253;SDS011;32542;52.832;13.816;2023-08-07T06:26:04;6.55;;;1.85;;
17253;SDS011;32542;52.832;13.816;2023-08-07T06:29:10;5.35;;;1.38;;
17253;SDS011;32542;52.832;13.816;2023-08-07T06:32:13;3.10;;;1.60;;
17253;SDS011;32542;52.832;13.816;2023-08-07T06:35:16;11.18;;;2.13;;
17253;SDS011;32542;52.832;13.816;2023-08-07T06:38:19;3.63;;;2.03;;
17253;SDS011;32542;52.832;13.816;2023-08-07T06:41:22;5.85;;;1.40;;
17253;SDS011;32542;52.832;13.816;2023-08-07T06:44:26;5.35;;;1.70;;
17253;SDS011;32542;52.832;13.816;2023-08-07T06:47:29;5.90;;;1.60;;
17253;SDS011;32542;52.832;13.816;2023-08-07T06:50:32;7.40;;;1.92;;
17253;SDS011;32542;52.832;13.816;2023-08-07T06:53:35;2.70;;;1.50;;
17253;SDS011;32542;52.832;13.816;2023-08-07T06:56:38;2.85;;;1.60;;
17253;SDS011;32542;52.832;13.816;2023-08-07T06:59:45;3.08;;;1.80;;
17253;SDS011;32542;52.832;13.816;2023-08-07T07:02:47;2.55;;;1.73;;
17253;SDS011;32542;52.832;13.816;2023-08-07T07:05:50;2.10;;;1.40;;
17253;SDS011;32542;52.832;13.816;2023-08-07T07:08:53;9.00;;;1.58;;
17253;SDS011;32542;52.832;13.816;2023-08-07T07:11:56;2.28;;;1.48;;
17253;SDS011;32542;52.832;13.816;2023-08-07T07:15:00;2.35;;;1.42;;
17253;SDS011;32542;52.832;13.816;2023-08-07T07:18:04;3.88;;;1.60;;
17253;SDS011;32542;52.832;13.816;2023-08-07T07:21:07;2.92;;;1.50;;
17253;SDS011;32542;52.832;13.816;2023-08-07T07:24:10;3.20;;;1.55;;
17253;SDS011;32542;52.832;13.816;2023-08-07T07:27:12;2.33;;;1.35;;
17253;SDS011;32542;52.832;13.816;2023-08-07T07:30:17;2.75;;;1.55;;
17253;SDS011;32542;52.832;13.816;2023-08-07T07:33:20;2.22;;;1.50;;
17253;SDS011;32542;52.832;13.816;2023-08-07T07:36:22;2.00;;;1.42;;
17253;SDS011;32542;52.832;13.816;2023-08-07T07:39:26;2.67;;;1.30;;
17253;SDS011;32542;52.832;13.816;2023-08-07T07:42:28;7.65;;;1.48;;
17253;SDS011;32542;52.832;13.816;2023-08-07T07:45:33;6.50;;;1.27;;
17253;SDS011;32542;52.832;13.816;2023-08-07T07:48:37;3.67;;;1.50;;
17253;SDS011;32542;52.832;13.816;2023-08-07T07:51:40;2.25;;;1.30;;
17253;SDS011;32542;52.832;13.816;2023-08-07T07:54:45;2.75;;;1.30;;
17253;SDS011;32542;52.832;13.816;2023-08-07T07:57:48;2.58;;;1.35;;
17253;SDS011;32542;52.832;13.816;2023-08-07T08:00:53;3.95;;;1.33;;
17253;SDS011;32542;52.832;13.816;2023-08-07T08:03:56;1.10;;;0.88;;
17253;SDS011;32542;52.832;13.816;2023-08-07T08:06:59;2.40;;;1.42;;
17253;SDS011;32542;52.832;13.816;2023-08-07T08:10:02;3.70;;;1.60;;
17253;SDS011;32542;52.832;13.816;2023-08-07T08:13:08;2.80;;;1.30;;
17253;SDS011;32542;52.832;13.816;2023-08-07T08:16:12;1.67;;;1.50;;
17253;SDS011;32542;52.832;13.816;2023-08-07T08:19:15;2.50;;;1.20;;
17253;SDS011;32542;52.832;13.816;2023-08-07T08:22:18;3.45;;;1.50;;
17253;SDS011;32542;52.832;13.816;2023-08-07T08:25:21;4.00;;;1.60;;
17253;SDS011;32542;52.832;13.816;2023-08-07T08:28:24;4.28;;;1.17;;
17253;SDS011;32542;52.832;13.816;2023-08-07T08:31:28;4.05;;;1.25;;
17253;SDS011;32542;52.832;13.816;2023-08-07T08:34:31;2.47;;;1.20;;
17253;SDS011;32542;52.832;13.816;2023-08-07T08:37:34;2.50;;;1.45;;
17253;SDS011;32542;52.832;13.816;2023-08-07T08:40:38;5.28;;;1.40;;
17253;SDS011;32542;52.832;13.816;2023-08-07T08:43:41;2.72;;;1.30;;
17253;SDS011;32542;52.832;13.816;2023-08-07T08:46:49;3.25;;;1.40;;
17253;SDS011;32542;52.832;13.816;2023-08-07T08:49:58;1.55;;;1.30;;
17253;SDS011;32542;52.832;13.816;2023-08-07T08:53:04;2.40;;;1.20;;
17253;SDS011;32542;52.832;13.816;2023-08-07T08:56:09;1.55;;;1.33;;
17253;SDS011;32542;52.832;13.816;2023-08-07T08:59:13;3.30;;;1.10;;
17253;SDS011;32542;52.832;13.816;2023-08-07T09:02:21;2.08;;;1.10;;
17253;SDS011;32542;52.832;13.816;2023-08-07T09:05:24;2.28;;;1.08;;
17253;SDS011;32542;52.832;13.816;2023-08-07T09:08:27;2.13;;;1.42;;
17253;SDS011;32542;52.832;13.816;2023-08-07T09:11:31;1.17;;;1.08;;
17253;SDS011;32542;52.832;13.816;2023-08-07T09:14:36;1.10;;;1.00;;
17253;SDS011;32542;52.832;13.816;2023-08-07T09:17:43;4.18;;;1.52;;
17253;SDS011;32542;52.832;13.816;2023-08-07T09:20:47;2.08;;;1.33;;
17253;SDS011;32542;52.832;13.816;2023-08-07T09:23:51;3.33;;;1.30;;
17253;SDS011;32542;52.832;13.816;2023-08-07T09:26:54;3.33;;;1.25;;
17253;SDS011;32542;52.832;13.816;2023-08-07T09:29:58;2.75;;;1.70;;
17253;SDS011;32542;52.832;13.816;2023-08-07T09:33:03;2.50;;;1.25;;
17253;SDS011;32542;52.832;13.816;2023-08-07T09:36:07;4.60;;;1.42;;
17253;SDS011;32542;52.832;13.816;2023-08-07T09:39:10;2.25;;;1.40;;
17253;SDS011;32542;52.832;13.816;2023-08-07T09:42:13;2.92;;;1.30;;
17253;SDS011;32542;52.832;13.816;2023-08-07T09:45:20;6.07;;;1.20;;
17253;SDS011;32542;52.832;13.816;2023-08-07T09:48:25;4.47;;;1.40;;
17253;SDS011;32542;52.832;13.816;2023-08-07T09:51:31;2.30;;;1.40;;
17253;SDS011;32542;52.832;13.816;2023-08-07T09:54:44;2.85;;;1.10;;
17253;SDS011;32542;52.832;13.816;2023-08-07T09:57:46;2.55;;;1.10;;
17253;SDS011;32542;52.832;13.816;2023-08-07T10:00:51;1.98;;;1.10;;
17253;SDS011;32542;52.832;13.816;2023-08-07T10:03:58;2.45;;;1.25;;
17253;SDS011;32542;52.832;13.816;2023-08-07T10:07:01;3.78;;;1.40;;
17253;SDS011;32542;52.832;13.816;2023-08-07T10:10:05;5.03;;;1.27;;
17253;SDS011;32542;52.832;13.816;2023-08-07T10:13:09;5.00;;;1.55;;
17253;SDS011;32542;52.832;13.816;2023-08-07T10:16:17;3.08;;;1.58;;
17253;SDS011;32542;52.832;13.816;2023-08-07T10:19:22;3.22;;;1.70;;
17253;SDS011;32542;52.832;13.816;2023-08-07T10:22:25;3.38;;;1.50;;
17253;SDS011;32542;52.832;13.816;2023-08-07T10:25:29;3.88;;;1.75;;
17253;SDS011;32542;52.832;13.816;2023-08-07T10:28:33;2.72;;;1.52;;
17253;SDS011;32542;52.832;13.816;2023-08-07T10:31:40;1.63;;;1.08;;
17253;SDS011;32542;52.832;13.816;2023-08-07T10:34:47;1.98;;;1.40;;
17253;SDS011;32542;52.832;13.816;2023-08-07T10:37:52;1.77;;;1.10;;
17253;SDS011;32542;52.832;13.816;2023-08-07T10:40:58;2.40;;;1.30;;
17253;SDS011;32542;52.832;13.816;2023-08-07T10:44:02;4.18;;;1.33;;
17253;SDS011;32542;52.832;13.816;2023-08-07T10:47:05;4.00;;;1.25;;
17253;SDS011;32542;52.832;13.816;2023-08-07T10:50:10;2.90;;;1.50;;
17253;SDS011;32542;52.832;13.816;2023-08-07T10:53:18;1.65;;;1.30;;
17253;SDS011;32542;52.832;13.816;2023-08-07T10:56:29;5.55;;;1.45;;
17253;SDS011;32542;52.832;13.816;2023-08-07T10:59:33;6.07;;;1.50;;
17253;SDS011;32542;52.832;13.816;2023-08-07T11:02:41;3.50;;;1.30;;
17253;SDS011;32542;52.832;13.816;2023-08-07T11:05:45;7.05;;;1.60;;
17253;SDS011;32542;52.832;13.816;2023-08-07T11:08:49;3.03;;;1.42;;
17253;SDS011;32542;52.832;13.816;2023-08-07T11:11:52;2.90;;;1.40;;
17253;SDS011;32542;52.832;13.816;2023-08-07T11:14:55;3.38;;;1.33;;
17253;SDS011;32542;52.832;13.816;2023-08-07T11:17:58;5.07;;;1.40;;
17253;SDS011;32542;52.832;13.816;2023-08-07T11:21:03;2.30;;;1.20;;
17253;SDS011;32542;52.832;13.816;2023-08-07T11:24:06;3.17;;;1.40;;
17253;SDS011;32542;52.832;13.816;2023-08-07T11:27:09;4.43;;;1.35;;
17253;SDS011;32542;52.832;13.816;2023-08-07T11:30:12;2.83;;;1.30;;
17253;SDS011;32542;52.832;13.816;2023-08-07T11:33:15;3.17;;;1.30;;
17253;SDS011;32542;52.832;13.816;2023-08-07T11:36:21;4.07;;;1.20;;
17253;SDS011;32542;52.832;13.816;2023-08-07T11:39:24;2.70;;;1.25;;
17253;SDS011;32542;52.832;13.816;2023-08-07T11:42:27;4.72;;;1.58;;
17253;SDS011;32542;52.832;13.816;2023-08-07T11:45:30;1.77;;;1.20;;
17253;SDS011;32542;52.832;13.816;2023-08-07T11:48:34;3.42;;;1.25;;
17253;SDS011;32542;52.832;13.816;2023-08-07T11:51:39;2.85;;;1.38;;
17253;SDS011;32542;52.832;13.816;2023-08-07T11:54:45;3.10;;;1.35;;
17253;SDS011;32542;52.832;13.816;2023-08-07T11:57:49;2.63;;;1.40;;
17253;SDS011;32542;52.832;13.816;2023-08-07T12:00:52;2.17;;;1.10;;
17253;SDS011;32542;52.832;13.816;2023-08-07T12:03:56;2.90;;;1.20;;
17253;SDS011;32542;52.832;13.816;2023-08-07T12:07:11;4.93;;;1.38;;
17253;SDS011;32542;52.832;13.816;2023-08-07T12:10:21;2.75;;;1.40;;
17253;SDS011;32542;52.832;13.816;2023-08-07T12:13:25;2.05;;;1.20;;
17253;SDS011;32542;52.832;13.816;2023-08-07T12:16:31;2.00;;;1.08;;
17253;SDS011;32542;52.832;13.816;2023-08-07T12:19:35;3.03;;;1.25;;
17253;SDS011;32542;52.832;13.816;2023-08-07T12:22:41;2.10;;;1.20;;
17253;SDS011;32542;52.832;13.816;2023-08-07T12:25:45;2.13;;;1.20;;
17253;SDS011;32542;52.832;13.816;2023-08-07T12:28:48;5.13;;;1.40;;
17253;SDS011;32542;52.832;13.816;2023-08-07T12:31:51;2.50;;;1.25;;
17253;SDS011;32542;52.832;13.816;2023-08-07T12:34:54;1.88;;;1.20;;
17253;SDS011;32542;52.832;13.816;2023-08-07T12:38:01;2.17;;;1.13;;
17253;SDS011;32542;52.832;13.816;2023-08-07T12:41:04;3.10;;;1.17;;
17253;SDS011;32542;52.832;13.816;2023-08-07T12:44:08;2.20;;;1.27;;
17253;SDS011;32542;52.832;13.816;2023-08-07T12:47:11;2.58;;;1.35;;
17253;SDS011;32542;52.832;13.816;2023-08-07T12:50:14;2.78;;;1.30;;
17253;SDS011;32542;52.832;13.816;2023-08-07T12:53:18;4.35;;;1.40;;
17253;SDS011;32542;52.832;13.816;2023-08-07T12:56:21;2.65;;;1.50;;
17253;SDS011;32542;52.832;13.816;2023-08-07T12:59:24;2.30;;;1.10;;
17253;SDS011;32542;52.832;13.816;2023-08-07T13:02:26;3.55;;;1.60;;
17253;SDS011;32542;52.832;13.816;2023-08-07T13:05:29;2.88;;;1.30;;
17253;SDS011;32542;52.832;13.816;2023-08-07T13:08:34;4.80;;;1.30;;
17253;SDS011;32542;52.832;13.816;2023-08-07T13:11:37;3.75;;;1.85;;
17253;SDS011;32542;52.832;13.816;2023-08-07T13:14:40;4.05;;;1.60;;
17253;SDS011;32542;52.832;13.816;2023-08-07T13:17:43;1.67;;;1.27;;
17253;SDS011;32542;52.832;13.816;2023-08-07T13:20:47;7.30;;;1.58;;
17253;SDS011;32542;52.832;13.816;2023-08-07T13:23:51;2.75;;;1.40;;
17253;SDS011;32542;52.832;13.816;2023-08-07T13:26:54;6.03;;;1.60;;
17253;SDS011;32542;52.832;13.816;2023-08-07T13:29:57;3.60;;;1.30;;
17253;SDS011;32542;52.832;13.816;2023-08-07T13:33:00;2.80;;;1.20;;
17253;SDS011;32542;52.832;13.816;2023-08-07T13:36:03;3.47;;;1.30;;
17253;SDS011;32542;52.832;13.816;2023-08-07T13:39:08;4.43;;;1.40;;
17253;SDS011;32542;52.832;13.816;2023-08-07T13:42:11;4.07;;;1.50;;
17253;SDS011;32542;52.832;13.816;2023-08-07T13:45:14;3.20;;;1.50;;
17253;SDS011;32542;52.832;13.816;2023-08-07T13:48:17;4.45;;;1.38;;
17253;SDS011;32542;52.832;13.816;2023-08-07T13:51:21;3.65;;;1.38;;
17253;SDS011;32542;52.832;13.816;2023-08-07T13:54:25;3.38;;;1.48;;
17253;SDS011;32542;52.832;13.816;2023-08-07T13:57:28;4.35;;;1.48;;
17253;SDS011;32542;52.832;13.816;2023-08-07T14:00:31;3.10;;;1.55;;
17253;SDS011;32542;52.832;13.816;2023-08-07T14:03:35;8.98;;;2.13;;
17253;SDS011;32542;52.832;13.816;2023-08-07T14:06:39;6.88;;;1.90;;
17253;SDS011;32542;52.832;13.816;2023-08-07T14:09:45;8.68;;;2.08;;
17253;SDS011;32542;52.832;13.816;2023-08-07T14:12:48;5.97;;;1.70;;
17253;SDS011;32542;52.832;13.816;2023-08-07T14:15:50;7.95;;;2.22;;
17253;SDS011;32542;52.832;13.816;2023-08-07T14:18:53;9.30;;;1.90;;
17253;SDS011;32542;52.832;13.816;2023-08-07T14:21:56;6.25;;;2.05;;
17253;SDS011;32542;52.832;13.816;2023-08-07T14:25:00;5.82;;;1.95;;
17253;SDS011;32542;52.832;13.816;2023-08-07T14:28:04;5.35;;;2.53;;
17253;SDS011;32542;52.832;13.816;2023-08-07T14:31:08;4.82;;;1.77;;
17253;SDS011;32542;52.832;13.816;2023-08-07T14:34:12;2.58;;;1.60;;
17253;SDS011;32542;52.832;13.816;2023-08-07T14:37:15;4.88;;;1.88;;
17253;SDS011;32542;52.832;13.816;2023-08-07T14:40:19;6.00;;;1.83;;
17253;SDS011;32542;52.832;13.816;2023-08-07T14:43:22;7.03;;;2.05;;
17253;SDS011;32542;52.832;13.816;2023-08-07T14:46:25;3.20;;;1.40;;
17253;SDS011;32542;52.832;13.816;2023-08-07T14:49:28;6.25;;;1.60;;
17253;SDS011;32542;52.832;13.816;2023-08-07T14:52:31;3.78;;;1.67;;
17253;SDS011;32542;52.832;13.816;2023-08-07T14:55:35;3.42;;;1.70;;
17253;SDS011;32542;52.832;13.816;2023-08-07T14:58:38;4.80;;;1.77;;
17253;SDS011;32542;52.832;13.816;2023-08-07T15:01:41;6.65;;;1.83;;
17253;SDS011;32542;52.832;13.816;2023-08-07T15:04:44;3.40;;;1.63;;
17253;SDS011;32542;52.832;13.816;2023-08-07T15:07:46;5.90;;;1.83;;
17253;SDS011;32542;52.832;13.816;2023-08-07T15:10:52;4.15;;;1.80;;
17253;SDS011;32542;52.832;13.816;2023-08-07T15:13:55;5.60;;;2.00;;
17253;SDS011;32542;52.832;13.816;2023-08-07T15:16:58;4.90;;;1.88;;
17253;SDS011;32542;52.832;13.816;2023-08-07T15:20:01;6.38;;;1.65;;
17253;SDS011;32542;52.832;13.816;2023-08-07T15:23:05;3.25;;;1.55;;
17253;SDS011;32542;52.832;13.816;2023-08-07T15:26:09;6.57;;;1.77;;
17253;SDS011;32542;52.832;13.816;2023-08-07T15:29:12;4.57;;;1.85;;
17253;SDS011;32542;52.832;13.816;2023-08-07T15:32:16;2.70;;;1.50;;
17253;SDS011;32542;52.832;13.816;2023-08-07T15:35:20;4.47;;;1.83;;
17253;SDS011;32542;52.832;13.816;2023-08-07T15:38:23;4.93;;;1.73;;
17253;SDS011;32542;52.832;13.816;2023-08-07T15:41:31;6.47;;;1.95;;
17253;SDS011;32542;52.832;13.816;2023-08-07T15:44:33;4.38;;;2.03;;
17253;SDS011;32542;52.832;13.816;2023-08-07T15:47:36;3.67;;;1.80;;
17253;SDS011;32542;52.832;13.816;2023-08-07T15:50:39;4.88;;;1.70;;
17253;SDS011;32542;52.832;13.816;2023-08-07T15:53:42;3.85;;;1.70;;
17253;SDS011;32542;52.832;13.816;2023-08-07T15:56:46;3.45;;;1.73;;
17253;SDS011;32542;52.832;13.816;2023-08-07T15:59:51;4.03;;;1.88;;
17253;SDS011;32542;52.832;13.816;2023-08-07T16:02:54;3.60;;;1.70;;
17253;SDS011;32542;52.832;13.816;2023-08-07T16:05:57;4.85;;;1.80;;
17253;SDS011;32542;52.832;13.816;2023-08-07T16:09:00;5.57;;;1.77;;
17253;SDS011;32542;52.832;13.816;2023-08-07T16:12:04;3.35;;;1.50;;
17253;SDS011;32542;52.832;13.816;2023-08-07T16:15:08;4.55;;;1.55;;
17253;SDS011;32542;52.832;13.816;2023-08-07T16:18:11;5.15;;;1.60;;
17253;SDS011;32542;52.832;13.816;2023-08-07T16:21:14;4.53;;;1.55;;
17253;SDS011;32542;52.832;13.816;2023-08-07T16:24:17;4.82;;;1.88;;
17253;SDS011;32542;52.832;13.816;2023-08-07T16:27:22;5.82;;;1.50;;
17253;SDS011;32542;52.832;13.816;2023-08-07T16:30:25;7.72;;;1.60;;
17253;SDS011;32542;52.832;13.816;2023-08-07T16:33:28;5.97;;;1.60;;
17253;SDS011;32542;52.832;13.816;2023-08-07T16:36:31;3.65;;;1.70;;
17253;SDS011;32542;52.832;13.816;2023-08-07T16:39:34;4.80;;;1.85;;
17253;SDS011;32542;52.832;13.816;2023-08-07T16:42:39;3.95;;;1.38;;
17253;SDS011;32542;52.832;13.816;2023-08-07T16:45:42;5.47;;;1.50;;
17253;SDS011;32542;52.832;13.816;2023-08-07T16:48:45;3.30;;;1.38;;
17253;SDS011;32542;52.832;13.816;2023-08-07T16:51:48;4.68;;;1.55;;
17253;SDS011;32542;52.832;13.816;2023-08-07T16:54:55;3.45;;;1.33;;
17253;SDS011;32542;52.832;13.816;2023-08-07T16:57:59;3.15;;;1.73;;
17253;SDS011;32542;52.832;13.816;2023-08-07T17:01:02;4.18;;;2.03;;
17253;SDS011;32542;52.832;13.816;2023-08-07T17:04:05;6.63;;;1.60;;
17253;SDS011;32542;52.832;13.816;2023-08-07T17:07:08;8.88;;;1.48;;
17253;SDS011;32542;52.832;13.816;2023-08-07T17:10:11;5.75;;;1.60;;
17253;SDS011;32542;52.832;13.816;2023-08-07T17:13:19;8.35;;;1.65;;
17253;SDS011;32542;52.832;13.816;2023-08-07T17:16:21;8.70;;;1.80;;
17253;SDS011;32542;52.832;13.816;2023-08-07T17:19:25;8.35;;;1.83;;
17253;SDS011;32542;52.832;13.816;2023-08-07T17:22:28;5.40;;;2.17;;
17253;SDS011;32542;52.832;13.816;2023-08-07T17:25:31;5.60;;;1.92;;
17253;SDS011;32542;52.832;13.816;2023-08-07T17:28:35;5.68;;;1.83;;
17253;SDS011;32542;52.832;13.816;2023-08-07T17:31:38;4.95;;;1.38;;
17253;SDS011;32542;52.832;13.816;2023-08-07T17:34:41;9.60;;;2.15;;
17253;SDS011;32542;52.832;13.816;2023-08-07T17:37:44;7.05;;;1.98;;
17253;SDS011;32542;52.832;13.816;2023-08-07T17:40:47;3.95;;;1.73;;
17253;SDS011;32542;52.832;13.816;2023-08-07T17:43:52;8.48;;;2.15;;
17253;SDS011;32542;52.832;13.816;2023-08-07T17:46:55;7.18;;;1.63;;
17253;SDS011;32542;52.832;13.816;2023-08-07T17:49:58;3.72;;;1.60;;
17253;SDS011;32542;52.832;13.816;2023-08-07T17:53:01;4.10;;;1.60;;
17253;SDS011;32542;52.832;13.816;2023-08-07T17:56:04;5.95;;;1.70;;
17253;SDS011;32542;52.832;13.816;2023-08-07T17:59:09;6.85;;;2.08;;
17253;SDS011;32542;52.832;13.816;2023-08-07T18:02:12;4.93;;;2.03;;
17253;SDS011;32542;52.832;13.816;2023-08-07T18:05:15;7.20;;;1.70;;
17253;SDS011;32542;52.832;13.816;2023-08-07T18:08:18;4.75;;;1.88;;
17253;SDS011;32542;52.832;13.816;2023-08-07T18:11:22;4.63;;;1.95;;
17253;SDS011;32542;52.832;13.816;2023-08-07T18:14:26;4.07;;;1.58;;
17253;SDS011;32542;52.832;13.816;2023-08-07T18:17:29;3.92;;;1.48;;